createdAt,value
2023-09-08T00:00:47.048Z,98177.28
2023-09-08T00:03:15.308Z,98172.94
2023-09-08T00:05:44.035Z,98169.47
2023-09-08T00:08:12.771Z,98175.53
2023-09-08T00:10:40.975Z,98180.88
2023-09-08T00:13:10.691Z,98172.31
2023-09-08T00:15:39.128Z,98182.75
2023-09-08T00:18:07.461Z,98169.75
2023-09-08T00:20:35.916Z,98172.38
2023-09-08T00:23:04.123Z,98159.59
2023-09-08T00:25:32.373Z,98164.63
2023-09-08T00:28:00.690Z,98163.00
2023-09-08T00:30:30.253Z,98163.00
2023-09-08T00:32:58.648Z,98156.03
2023-09-08T00:35:26.949Z,98161.22
2023-09-08T00:37:55.208Z,98168.25
2023-09-08T00:40:23.436Z,98162.22
2023-09-08T00:42:51.657Z,98167.34
2023-09-08T00:45:19.793Z,98162.09
2023-09-08T00:47:49.518Z,98152.63
2023-09-08T00:50:17.820Z,98158.66
2023-09-08T00:52:46.022Z,98150.94
2023-09-08T00:55:14.656Z,98149.31
2023-09-08T00:57:42.880Z,98147.50
2023-09-08T01:00:12.956Z,98146.59
2023-09-08T01:02:41.424Z,98143.97
2023-09-08T01:05:11.126Z,98142.13
2023-09-08T01:07:39.533Z,98143.91
2023-09-08T01:10:08.485Z,98138.75
2023-09-08T01:12:37.196Z,98144.03
2023-09-08T01:15:06.627Z,98140.66
2023-09-08T01:17:35.910Z,98145.91
2023-09-08T01:20:15.786Z,98145.88
2023-09-08T01:22:58.352Z,98134.66
2023-09-08T01:25:28.264Z,98137.22
2023-09-08T01:27:58.490Z,98126.84
2023-09-08T01:30:29.908Z,98130.94
2023-09-08T01:32:58.946Z,98127.31
2023-09-08T01:35:28.095Z,98124.06
2023-09-08T01:37:56.258Z,98129.31
2023-09-08T01:40:24.622Z,98121.56
2023-09-08T01:42:54.213Z,98120.75
2023-09-08T01:45:22.458Z,98129.47
2023-09-08T01:47:50.713Z,98126.06
2023-09-08T01:50:22.860Z,98131.31
2023-09-08T01:52:51.250Z,98124.31
2023-09-08T01:55:19.478Z,98135.78
2023-09-08T01:57:47.804Z,98134.88
2023-09-08T02:00:18.872Z,98130.53
2023-09-08T02:02:47.119Z,98137.22
2023-09-08T02:05:15.474Z,98133.72
2023-09-08T02:07:44.205Z,98130.34
2023-09-08T02:10:12.618Z,98132.94
2023-09-08T02:12:41.084Z,98128.69
2023-09-08T02:15:12.356Z,98121.03
2023-09-08T02:17:42.181Z,98122.81
2023-09-08T02:20:12.811Z,98133.16
2023-09-08T02:22:41.047Z,98132.34
2023-09-08T02:25:10.235Z,98132.22
2023-09-08T02:27:38.662Z,98133.88
2023-09-08T02:30:08.564Z,98128.84
2023-09-08T02:32:37.072Z,98126.91
2023-09-08T02:35:08.197Z,98128.69
2023-09-08T02:37:37.199Z,98123.56
2023-09-08T02:40:08.512Z,98133.16
2023-09-08T02:42:38.163Z,98127.88
2023-09-08T02:45:07.174Z,98130.41
2023-09-08T02:47:35.653Z,98128.72
2023-09-08T02:50:05.910Z,98125.31
2023-09-08T02:52:36.716Z,98124.41
2023-09-08T02:55:05.354Z,98125.31
2023-09-08T02:57:33.499Z,98125.38
2023-09-08T03:00:02.209Z,98121.88
2023-09-08T03:02:30.731Z,98119.38
2023-09-08T03:04:59.246Z,98127.16
2023-09-08T03:07:28.055Z,98117.75
2023-09-08T03:09:57.855Z,98123.78
2023-09-08T03:12:26.109Z,98132.59
2023-09-08T03:14:54.395Z,98127.53
2023-09-08T03:17:24.630Z,98130.09
2023-09-08T03:19:52.880Z,98128.97
2023-09-08T03:22:21.121Z,98126.28
2023-09-08T03:24:49.724Z,98115.06
2023-09-08T03:27:19.658Z,98118.53
2023-09-08T03:29:50.981Z,98116.13
2023-09-08T03:32:19.275Z,98128.22
2023-09-08T03:34:47.776Z,98118.56
2023-09-08T03:37:16.670Z,98117.03
2023-09-08T03:39:45.234Z,98118.91
2023-09-08T03:42:14.540Z,98122.44
2023-09-08T03:44:44.155Z,98131.81
2023-09-08T03:47:12.454Z,98118.72
2023-09-08T03:49:40.762Z,98124.75
2023-09-08T03:52:09.022Z,98114.19
2023-09-08T03:54:38.377Z,98119.41
2023-09-08T03:57:06.850Z,98127.34
2023-09-08T03:59:35.029Z,98121.47
2023-09-08T04:02:04.848Z,98126.53
2023-09-08T04:04:33.233Z,98123.06
2023-09-08T04:07:01.793Z,98131.91
2023-09-08T04:09:33.109Z,98127.44
2023-09-08T04:12:01.406Z,98123.03
2023-09-08T04:14:31.637Z,98120.72
2023-09-08T04:16:59.901Z,98128.38
2023-09-08T04:19:29.754Z,98124.88
2023-09-08T04:21:58.046Z,98124.88
2023-09-08T04:24:26.230Z,98128.44
2023-09-08T04:26:54.678Z,98131.16
2023-09-08T04:29:22.907Z,98132.72
2023-09-08T04:31:51.144Z,98137.88
2023-09-08T04:34:19.641Z,98140.63
2023-09-08T04:36:52.861Z,98149.19
2023-09-08T04:39:21.931Z,98141.34
2023-09-08T04:41:50.400Z,98137.88
2023-09-08T04:44:18.606Z,98144.88
2023-09-08T04:46:47.082Z,98143.97
2023-09-08T04:49:16.454Z,98145.59
2023-09-08T04:51:45.246Z,98143.22
2023-09-08T04:54:16.654Z,98147.47
2023-09-08T04:56:46.774Z,98142.19
2023-09-08T04:59:15.939Z,98141.38
2023-09-08T05:01:44.782Z,98148.16
2023-09-08T05:04:13.725Z,98153.34
2023-09-08T05:06:42.345Z,98146.25
2023-09-08T05:09:10.937Z,98150.63
2023-09-08T05:11:40.958Z,98151.41
2023-09-08T05:14:09.723Z,98146.16
2023-09-08T05:16:40.696Z,98145.19
2023-09-08T05:19:12.236Z,98147.72
2023-09-08T05:21:41.131Z,98148.50
2023-09-08T05:24:09.837Z,98150.19
2023-09-08T05:26:40.837Z,98150.22
2023-09-08T05:29:09.193Z,98152.03
2023-09-08T05:31:37.445Z,98148.53
2023-09-08T05:34:05.701Z,98151.09
2023-09-08T05:36:37.112Z,98154.41
2023-09-08T05:39:06.400Z,98155.06
2023-09-08T05:41:34.978Z,98153.25
2023-09-08T05:44:06.731Z,98158.31
2023-09-08T05:46:35.293Z,98148.69
2023-09-08T05:49:04.597Z,98147.81
2023-09-08T05:51:33.984Z,98152.81
2023-09-08T05:54:03.552Z,98150.06
2023-09-08T05:56:32.922Z,98140.25
2023-09-08T05:59:02.512Z,98149.81
2023-09-08T06:01:33.935Z,98139.31
2023-09-08T06:04:05.476Z,98138.06
2023-09-08T06:06:35.847Z,98143.28
2023-09-08T06:09:04.216Z,98145.88
2023-09-08T06:11:33.940Z,98143.00
2023-09-08T06:14:02.739Z,98149.84
2023-09-08T06:16:38.727Z,98145.25
2023-09-08T06:19:07.322Z,98152.00
2023-09-08T06:21:35.514Z,98139.91
2023-09-08T06:24:05.673Z,98144.03
2023-09-08T06:26:34.288Z,98139.59
2023-09-08T06:29:02.692Z,98134.13
2023-09-08T06:31:31.871Z,98133.28
2023-09-08T06:34:01.719Z,98130.41
2023-09-08T06:36:31.718Z,98133.72
2023-09-08T06:39:00.196Z,98131.91
2023-09-08T06:41:29.851Z,98136.47
2023-09-08T06:44:00.829Z,98131.69
2023-09-08T06:46:30.633Z,98130.72
2023-09-08T06:48:59.142Z,98126.22
2023-09-08T06:51:29.220Z,98127.13
2023-09-08T06:53:58.237Z,98132.47
2023-09-08T06:56:31.174Z,98127.00
2023-09-08T06:58:59.978Z,98120.00
2023-09-08T07:01:28.743Z,98127.00
2023-09-08T07:03:57.486Z,98133.91
2023-09-08T07:06:25.948Z,98125.53
2023-09-08T07:08:56.022Z,98126.50
2023-09-08T07:11:24.319Z,98131.19
2023-09-08T07:13:52.602Z,98120.28
2023-09-08T07:16:21.529Z,98120.09
2023-09-08T07:18:51.306Z,98117.47
2023-09-08T07:21:19.520Z,98113.22
2023-09-08T07:23:48.182Z,98118.38
2023-09-08T07:26:19.015Z,98116.88
2023-09-08T07:28:47.767Z,98115.50
2023-09-08T07:31:17.562Z,98112.56
2023-09-08T07:33:48.360Z,98112.31
2023-09-08T07:36:17.713Z,98109.31
2023-09-08T07:38:47.313Z,98108.47
2023-09-08T07:41:16.120Z,98098.00
2023-09-08T07:43:47.100Z,98097.19
2023-09-08T07:46:18.515Z,98093.00
2023-09-08T07:48:46.878Z,98100.25
2023-09-08T07:51:15.154Z,98097.34
2023-09-08T07:53:43.335Z,98098.25
2023-09-08T07:56:11.702Z,98093.47
2023-09-08T07:58:40.875Z,98090.13
2023-09-08T08:01:10.562Z,98092.97
2023-09-08T08:03:38.898Z,98085.50
2023-09-08T08:06:07.480Z,98084.63
2023-09-08T08:08:39.527Z,98086.22
2023-09-08T08:11:12.249Z,98077.94
2023-09-08T08:13:40.474Z,98078.75
2023-09-08T08:16:10.280Z,98087.69
2023-09-08T08:18:38.836Z,98079.25
2023-09-08T08:21:07.509Z,98076.28
2023-09-08T08:23:37.289Z,98077.47
2023-09-08T08:26:05.809Z,98073.91
2023-09-08T08:28:34.202Z,98068.38
2023-09-08T08:31:02.610Z,98065.78
2023-09-08T08:33:32.283Z,98066.34
2023-09-08T08:36:00.534Z,98058.03
2023-09-08T08:38:28.719Z,98054.81
2023-09-08T08:40:56.941Z,98054.75
2023-09-08T08:43:26.194Z,98043.03
2023-09-08T08:45:55.194Z,98041.13
2023-09-08T08:48:26.098Z,98039.66
2023-09-08T08:50:56.409Z,98043.78
2023-09-08T08:53:24.821Z,98038.44
2023-09-08T08:55:54.745Z,98033.59
2023-09-08T08:58:26.190Z,98035.44
2023-09-08T09:00:57.045Z,98036.66
2023-09-08T09:03:27.280Z,98045.72
2023-09-08T09:05:57.106Z,98039.94
2023-09-08T09:08:26.272Z,98041.53
2023-09-08T09:10:54.558Z,98040.59
2023-09-08T09:13:23.653Z,98045.66
2023-09-08T09:15:53.056Z,98046.88
2023-09-08T09:18:21.407Z,98040.28
2023-09-08T09:20:57.494Z,98040.69
2023-09-08T09:23:30.233Z,98040.00
2023-09-08T09:25:58.854Z,98032.47
2023-09-08T09:28:27.153Z,98033.63
2023-09-08T09:30:56.580Z,98034.78
2023-09-08T09:33:25.313Z,98027.13
2023-09-08T09:35:56.514Z,98026.22
2023-09-08T09:38:24.689Z,98029.25
2023-09-08T09:40:53.774Z,98029.97
2023-09-08T09:43:23.958Z,98031.00
2023-09-08T09:45:52.455Z,98035.94
2023-09-08T09:48:22.303Z,98025.47
2023-09-08T09:50:50.667Z,98025.00
2023-09-08T09:53:20.319Z,98020.84
2023-09-08T09:55:48.581Z,98014.81
2023-09-08T09:58:17.355Z,98018.72
2023-09-08T10:00:49.655Z,98034.47
2023-09-08T10:03:18.455Z,98028.22
2023-09-08T10:05:49.347Z,98015.13
2023-09-08T10:08:17.764Z,98010.81
2023-09-08T10:10:49.453Z,98012.03
2023-09-08T10:13:20.643Z,98001.53
2023-09-08T10:15:51.074Z,98001.28
2023-09-08T10:18:22.619Z,98001.97
2023-09-08T10:20:51.554Z,97995.13
2023-09-08T10:23:25.171Z,97995.16
2023-09-08T10:25:58.211Z,97989.38
2023-09-08T10:28:27.313Z,97995.31
2023-09-08T10:30:55.962Z,97994.22
2023-09-08T10:33:25.333Z,97993.22
2023-09-08T10:35:53.805Z,97992.47
2023-09-08T10:38:26.648Z,97984.59
2023-09-08T10:41:14.433Z,97990.78
2023-09-08T10:43:44.842Z,97984.91
2023-09-08T10:46:13.455Z,97974.94
2023-09-08T10:48:44.356Z,97976.19
2023-09-08T10:51:15.474Z,97968.97
2023-09-08T10:53:43.854Z,97970.38
2023-09-08T10:56:18.249Z,97975.44
2023-09-08T10:58:51.596Z,97973.78
2023-09-08T11:01:23.896Z,97964.09
2023-09-08T11:03:52.820Z,97965.88
2023-09-08T11:06:23.335Z,97975.13
2023-09-08T11:08:56.897Z,97968.72
2023-09-08T11:11:27.136Z,97971.38
2023-09-08T11:13:55.329Z,97966.66
2023-09-08T11:16:30.611Z,97960.84
2023-09-08T11:18:59.197Z,97963.50
2023-09-08T11:21:28.139Z,97962.09
2023-09-08T11:23:57.011Z,97961.69
2023-09-08T11:26:27.527Z,97961.00
2023-09-08T11:28:56.299Z,97961.19
2023-09-08T11:31:24.525Z,97965.22
2023-09-08T11:33:57.184Z,97966.44
2023-09-08T11:36:25.438Z,97962.81
2023-09-08T11:38:54.903Z,97959.13
2023-09-08T11:41:24.997Z,97963.91
2023-09-08T11:43:56.217Z,97967.97
2023-09-08T11:46:24.564Z,97957.34
2023-09-08T11:48:52.966Z,97960.97
2023-09-08T11:51:25.446Z,97957.13
2023-09-08T11:53:54.003Z,97952.69
2023-09-08T11:56:22.417Z,97942.19
2023-09-08T11:58:50.911Z,97945.31
2023-09-08T12:01:20.960Z,97949.03
2023-09-08T12:03:55.444Z,97940.41
2023-09-08T12:06:27.026Z,97940.72
2023-09-08T12:08:55.448Z,97929.09
2023-09-08T12:11:23.883Z,97935.81
2023-09-08T12:13:52.308Z,97931.94
2023-09-08T12:16:23.551Z,97926.06
2023-09-08T12:18:52.097Z,97928.00
2023-09-08T12:21:20.470Z,97914.56
2023-09-08T12:23:52.895Z,97914.34
2023-09-08T12:26:21.133Z,97908.72
2023-09-08T12:28:49.728Z,97912.53
2023-09-08T12:31:19.581Z,97911.28
2023-09-08T12:33:49.444Z,97909.34
2023-09-08T12:36:18.853Z,97910.06
2023-09-08T12:38:50.972Z,97907.38
2023-09-08T12:41:19.291Z,97906.22
2023-09-08T12:43:50.252Z,97901.81
2023-09-08T12:46:19.621Z,97908.63
2023-09-08T12:48:49.418Z,97912.59
2023-09-08T12:51:17.558Z,97895.00
2023-09-08T12:53:45.901Z,97904.75
2023-09-08T12:56:14.182Z,97899.41
2023-09-08T12:58:42.372Z,97893.94
2023-09-08T13:01:12.118Z,97890.31
2023-09-08T13:03:42.620Z,97890.38
2023-09-08T13:06:13.455Z,97891.91
2023-09-08T13:08:42.952Z,97886.28
2023-09-08T13:11:11.527Z,97885.69
2023-09-08T13:13:40.521Z,97886.59
2023-09-08T13:16:11.144Z,97876.31
2023-09-08T13:18:42.715Z,97867.88
2023-09-08T13:21:14.853Z,97877.59
2023-09-08T13:23:44.821Z,97878.22
2023-09-08T13:26:14.135Z,97869.13
2023-09-08T13:28:44.207Z,97864.00
2023-09-08T13:31:15.368Z,97862.81
2023-09-08T13:33:46.461Z,97869.63
2023-09-08T13:36:19.023Z,97864.38
2023-09-08T13:38:49.626Z,97860.72
2023-09-08T13:41:20.404Z,97865.31
2023-09-08T13:43:50.752Z,97861.41
2023-09-08T13:46:21.768Z,97855.16
2023-09-08T13:48:53.410Z,97846.34
2023-09-08T13:51:27.706Z,97846.09
2023-09-08T13:53:59.243Z,97841.31
2023-09-08T13:56:33.049Z,97841.06
2023-09-08T13:59:06.858Z,97846.81
2023-09-08T14:01:43.825Z,97834.63
2023-09-08T14:04:19.401Z,97834.69
2023-09-08T14:06:59.647Z,97839.72
2023-09-08T14:09:44.041Z,97828.91
2023-09-08T14:12:31.814Z,97832.88
2023-09-08T14:15:06.578Z,97830.97
2023-09-08T14:17:37.648Z,97829.22
2023-09-08T14:20:09.771Z,97835.63
2023-09-08T14:22:42.530Z,97832.53
2023-09-08T14:25:13.724Z,97827.97
2023-09-08T14:27:44.955Z,97833.88
2023-09-08T14:30:16.179Z,97820.44
2023-09-08T14:32:48.754Z,97815.38
2023-09-08T14:35:20.154Z,97818.63
2023-09-08T14:37:52.894Z,97813.56
2023-09-08T14:40:26.541Z,97826.81
2023-09-08T14:42:57.816Z,97824.38
2023-09-08T14:45:28.862Z,97828.03
2023-09-08T14:48:01.617Z,97821.22
2023-09-08T14:50:33.001Z,97810.44
2023-09-08T14:53:05.630Z,97807.19
2023-09-08T14:55:36.344Z,97819.59
2023-09-08T14:58:08.084Z,97811.84
2023-09-08T15:00:39.020Z,97822.09
2023-09-08T15:03:10.239Z,97822.66
2023-09-08T15:05:40.434Z,97814.78
2023-09-08T15:08:12.702Z,97819.13
2023-09-08T15:10:43.406Z,97819.41
2023-09-08T15:13:14.562Z,97819.72
2023-09-08T15:15:45.356Z,97816.06
2023-09-08T15:18:16.317Z,97810.75
2023-09-08T15:20:54.985Z,97815.09
2023-09-08T15:23:28.212Z,97814.78
2023-09-08T15:25:59.566Z,97816.38
2023-09-08T15:28:30.511Z,97817.72
2023-09-08T15:31:01.031Z,97812.59
2023-09-08T15:33:33.035Z,97813.16
2023-09-08T15:36:04.233Z,97814.16
2023-09-08T15:38:36.922Z,97829.88
2023-09-08T15:41:21.937Z,97820.16
2023-09-08T15:43:54.422Z,97819.91
2023-09-08T15:46:25.326Z,97822.53
2023-09-08T15:48:55.947Z,97817.53
2023-09-08T15:51:26.706Z,97813.47
2023-09-08T15:54:01.014Z,97816.44
2023-09-08T15:56:31.608Z,97807.75
2023-09-08T15:59:02.830Z,97801.97
2023-09-08T16:01:34.045Z,97808.38
2023-09-08T16:04:08.795Z,97810.00
2023-09-08T16:06:39.413Z,97803.78
2023-09-08T16:09:15.514Z,97808.06
2023-09-08T16:11:48.881Z,97803.13
2023-09-08T16:14:20.747Z,97794.94
2023-09-08T16:16:52.699Z,97808.13
2023-09-08T16:19:24.254Z,97807.53
2023-09-08T16:21:55.499Z,97813.09
2023-09-08T16:24:29.677Z,97804.72
2023-09-08T16:27:02.162Z,97807.34
2023-09-08T16:29:33.415Z,97801.81
2023-09-08T16:32:04.203Z,97806.09
2023-09-08T16:34:35.829Z,97809.03
2023-09-08T16:37:07.373Z,97807.28
2023-09-08T16:39:40.295Z,97803.41
2023-09-08T16:42:13.224Z,97798.88
2023-09-08T16:44:45.612Z,97800.16
2023-09-08T16:47:16.933Z,97811.56
2023-09-08T16:49:50.415Z,97803.53
2023-09-08T16:52:21.867Z,97800.19
2023-09-08T16:54:54.542Z,97807.03
2023-09-08T16:57:28.800Z,97805.59
2023-09-08T17:00:02.683Z,97805.03
2023-09-08T17:02:34.548Z,97805.28
2023-09-08T17:05:06.137Z,97807.19
2023-09-08T17:07:37.529Z,97810.06
2023-09-08T17:10:11.627Z,97804.78
2023-09-08T17:12:44.006Z,97816.66
2023-09-08T17:15:15.858Z,97817.94
2023-09-08T17:17:47.922Z,97823.56
2023-09-08T17:20:20.030Z,97819.81
2023-09-08T17:22:51.490Z,97829.19
2023-09-08T17:25:24.384Z,97833.47
2023-09-08T17:27:55.820Z,97831.63
2023-09-08T17:30:31.865Z,97833.31
2023-09-08T17:33:05.101Z,97830.91
2023-09-08T17:35:40.065Z,97834.47
2023-09-08T17:38:14.579Z,97842.09
2023-09-08T17:40:52.269Z,97836.34
2023-09-08T17:43:24.189Z,97838.41
2023-09-08T17:45:59.813Z,97841.50
2023-09-08T17:48:34.121Z,97840.31
2023-09-08T17:51:06.335Z,97840.16
2023-09-08T17:53:39.629Z,97847.72
2023-09-08T17:56:13.138Z,97845.00
2023-09-08T17:58:44.968Z,97848.31
2023-09-08T18:01:17.002Z,97852.91
2023-09-08T18:03:50.848Z,97855.31
2023-09-08T18:06:22.993Z,97864.31
2023-09-08T18:08:55.067Z,97864.94
2023-09-08T18:11:29.845Z,97874.22
2023-09-08T18:14:02.589Z,97882.16
2023-09-08T18:16:36.978Z,97890.97
2023-09-08T18:19:09.265Z,97893.00
2023-09-08T18:21:43.043Z,97895.88
2023-09-08T18:24:15.323Z,97896.78
2023-09-08T18:26:50.386Z,97897.53
2023-09-08T18:29:22.028Z,97909.06
2023-09-08T18:31:53.976Z,97900.84
2023-09-08T18:34:25.897Z,97908.53
2023-09-08T18:36:57.735Z,97900.34
2023-09-08T18:39:30.793Z,97906.03
2023-09-08T18:42:05.628Z,97906.69
2023-09-08T18:44:44.035Z,97908.34
2023-09-08T18:47:17.151Z,97919.25
2023-09-08T18:49:50.443Z,97926.09
2023-09-08T18:52:25.923Z,97919.13
2023-09-08T18:54:58.952Z,97923.94
2023-09-08T18:57:32.996Z,97918.06
2023-09-08T19:00:05.504Z,97928.84
2023-09-08T19:02:39.203Z,97922.16
2023-09-08T19:05:15.045Z,97929.19
2023-09-08T19:07:48.852Z,97927.44
2023-09-08T19:10:21.741Z,97927.03
2023-09-08T19:12:57.644Z,97932.16
2023-09-08T19:15:29.745Z,97928.47
2023-09-08T19:18:02.592Z,97928.06
2023-09-08T19:20:35.448Z,97932.13
2023-09-08T19:23:08.363Z,97930.97
2023-09-08T19:25:44.466Z,97935.44
2023-09-08T19:28:18.423Z,97925.94
2023-09-08T19:30:58.896Z,97937.22
2023-09-08T19:33:34.900Z,97943.00
2023-09-08T19:36:09.956Z,97944.28
2023-09-08T19:38:42.608Z,97946.97
2023-09-08T19:41:19.745Z,97950.34
2023-09-08T19:43:58.069Z,97946.81
2023-09-08T19:46:31.557Z,97944.09
2023-09-08T19:49:07.608Z,97952.31
2023-09-08T19:51:40.780Z,97946.31
2023-09-08T19:54:15.099Z,97943.09
2023-09-08T19:56:50.310Z,97953.66
2023-09-08T19:59:26.989Z,97953.88
2023-09-08T20:02:02.544Z,97957.34
2023-09-08T20:04:38.277Z,97949.41
2023-09-08T20:07:14.215Z,97955.47
2023-09-08T20:09:46.271Z,97946.06
2023-09-08T20:12:22.290Z,97948.97
2023-09-08T20:14:56.108Z,97958.66
2023-09-08T20:17:36.179Z,97954.38
2023-09-08T20:20:10.028Z,97950.81
2023-09-08T20:22:42.036Z,97949.09
2023-09-08T20:25:16.848Z,97948.75
2023-09-08T20:27:52.352Z,97950.84
2023-09-08T20:30:27.049Z,97950.00
2023-09-08T20:32:59.289Z,97949.00
2023-09-08T20:35:33.455Z,97950.69
2023-09-08T20:38:05.319Z,97952.72
2023-09-08T20:40:37.397Z,97944.06
2023-09-08T20:43:12.120Z,97947.50
2023-09-08T20:45:46.342Z,97944.16
2023-09-08T20:48:20.201Z,97947.03
2023-09-08T20:50:52.536Z,97950.97
2023-09-08T20:53:24.166Z,97950.22
2023-09-08T20:55:55.753Z,97947.00
2023-09-08T20:58:30.186Z,97951.38
2023-09-08T21:01:05.031Z,97948.78
2023-09-08T21:03:36.435Z,97949.50
2023-09-08T21:06:07.311Z,97954.00
2023-09-08T21:08:36.986Z,97956.88
2023-09-08T21:11:06.033Z,97954.50
2023-09-08T21:13:35.378Z,97956.13
2023-09-08T21:16:05.458Z,97954.44
2023-09-08T21:18:33.908Z,97950.13
2023-09-08T21:21:02.112Z,97948.25
2023-09-08T21:23:30.272Z,97957.28
2023-09-08T21:25:58.724Z,97951.00
2023-09-08T21:28:27.058Z,97943.13
2023-09-08T21:31:08.515Z,97954.59
2023-09-08T21:33:38.306Z,97957.28
2023-09-08T21:36:07.658Z,97952.13
2023-09-08T21:38:36.229Z,97959.13
2023-09-08T21:41:08.470Z,97950.50
2023-09-08T21:43:36.957Z,97954.94
2023-09-08T21:46:07.688Z,97952.25
2023-09-08T21:48:37.411Z,97944.78
2023-09-08T21:51:06.069Z,97954.66
2023-09-08T21:53:34.554Z,97952.91
2023-09-08T21:56:02.899Z,97946.97
2023-09-08T21:58:31.297Z,97945.19
2023-09-08T22:00:59.724Z,97945.28
2023-09-08T22:03:29.522Z,97943.72
2023-09-08T22:05:57.977Z,97949.19
2023-09-08T22:08:26.214Z,97952.78
2023-09-08T22:10:54.799Z,97949.44
2023-09-08T22:13:23.005Z,97950.31
2023-09-08T22:15:51.536Z,97946.84
2023-09-08T22:18:19.772Z,97944.34
2023-09-08T22:20:56.221Z,97942.50
2023-09-08T22:23:24.365Z,97939.25
2023-09-08T22:25:54.269Z,97939.94
2023-09-08T22:28:22.570Z,97937.34
2023-09-08T22:30:50.812Z,97942.78
2023-09-08T22:33:19.236Z,97938.53
2023-09-08T22:35:47.535Z,97946.50
2023-09-08T22:38:17.685Z,97943.19
2023-09-08T22:40:46.475Z,97945.88
2023-09-08T22:43:14.800Z,97947.56
2023-09-08T22:45:44.080Z,97940.63
2023-09-08T22:48:12.436Z,97942.41
2023-09-08T22:50:41.249Z,97941.63
2023-09-08T22:53:11.455Z,97942.47
2023-09-08T22:55:41.736Z,97941.69
2023-09-08T22:58:10.010Z,97944.34
2023-09-08T23:00:38.202Z,97945.94
2023-09-08T23:03:06.610Z,97943.06
2023-09-08T23:05:34.863Z,97940.97
2023-09-08T23:08:03.178Z,97949.94
2023-09-08T23:10:31.452Z,97942.16
2023-09-08T23:13:01.180Z,97945.28
2023-09-08T23:15:29.973Z,97937.19
2023-09-08T23:17:58.890Z,97938.72
2023-09-08T23:20:27.211Z,97938.81
2023-09-08T23:22:55.416Z,97942.34
2023-09-08T23:25:23.712Z,97934.91
2023-09-08T23:27:51.896Z,97936.63
2023-09-08T23:30:21.833Z,97941.13
2023-09-08T23:32:50.136Z,97940.59
2023-09-08T23:35:18.391Z,97938.94
2023-09-08T23:37:46.768Z,97945.06
2023-09-08T23:40:15.041Z,97941.38
2023-09-08T23:42:43.288Z,97939.78
2023-09-08T23:45:12.451Z,97934.25
2023-09-08T23:47:42.109Z,97940.19
2023-09-08T23:50:10.896Z,97941.88
2023-09-08T23:52:39.208Z,97942.63
2023-09-08T23:55:08.133Z,97936.00
2023-09-08T23:57:36.766Z,97931.75
